createdAt,value
2023-05-23T00:01:25.830Z,9.63
2023-05-23T00:03:57.358Z,8.70
2023-05-23T00:06:27.402Z,8.90
2023-05-23T00:08:58.285Z,9.03
2023-05-23T00:11:29.445Z,8.58
2023-05-23T00:14:00.680Z,8.30
2023-05-23T00:16:30.972Z,8.60
2023-05-23T00:19:02.414Z,8.58
2023-05-23T00:21:33.107Z,8.57
2023-05-23T00:24:05.840Z,9.10
2023-05-23T00:26:35.352Z,8.15
2023-05-23T00:29:06.012Z,8.00
2023-05-23T00:31:35.701Z,8.20
2023-05-23T00:34:05.834Z,8.33
2023-05-23T00:36:37.505Z,7.92
2023-05-23T00:39:07.065Z,7.70
2023-05-23T00:41:38.495Z,8.10
2023-05-23T00:44:09.666Z,7.53
2023-05-23T00:46:40.979Z,7.70
2023-05-23T00:49:11.436Z,7.50
2023-05-23T00:51:43.340Z,7.50
2023-05-23T00:54:13.676Z,7.70
2023-05-23T00:56:44.230Z,7.83
2023-05-23T00:59:15.334Z,7.60
2023-05-23T01:01:47.566Z,7.00
2023-05-23T01:04:20.087Z,8.03
2023-05-23T01:06:51.164Z,7.53
2023-05-23T01:09:22.524Z,8.00
2023-05-23T01:12:16.253Z,7.95
2023-05-23T01:15:03.539Z,7.72
2023-05-23T01:17:42.669Z,8.20
2023-05-23T01:20:23.637Z,8.53
2023-05-23T01:23:02.378Z,7.50
2023-05-23T01:26:12.128Z,7.42
2023-05-23T01:28:50.536Z,7.80
2023-05-23T01:31:20.866Z,8.23
2023-05-23T01:33:54.232Z,8.03
2023-05-23T01:36:23.975Z,8.30
2023-05-23T01:38:54.743Z,8.33
2023-05-23T01:41:24.742Z,7.90
2023-05-23T01:43:54.456Z,8.10
2023-05-23T01:46:25.332Z,8.00
2023-05-23T01:48:57.688Z,7.83
2023-05-23T01:51:27.443Z,7.95
2023-05-23T01:53:59.056Z,8.38
2023-05-23T01:56:30.489Z,7.62
2023-05-23T01:59:00.249Z,7.17
2023-05-23T02:01:31.103Z,8.18
2023-05-23T02:04:01.339Z,8.15
2023-05-23T02:06:32.422Z,8.23
2023-05-23T02:09:02.347Z,7.70
2023-05-23T02:11:34.344Z,8.80
2023-05-23T02:14:04.227Z,8.93
2023-05-23T02:16:35.503Z,9.18
2023-05-23T02:19:05.786Z,8.05
2023-05-23T02:21:35.879Z,9.45
2023-05-23T02:25:46.192Z,9.58
2023-05-23T02:28:15.825Z,9.60
2023-05-23T02:35:43.557Z,8.30
2023-05-23T02:38:13.088Z,9.33
2023-05-23T02:40:44.143Z,9.10
2023-05-23T02:43:14.400Z,9.80
2023-05-23T02:45:44.279Z,9.53
2023-05-23T02:48:13.793Z,9.35
2023-05-23T02:50:43.499Z,9.25
2023-05-23T02:53:13.277Z,9.50
2023-05-23T02:55:43.578Z,9.67
2023-05-23T02:58:13.811Z,9.80
2023-05-23T03:00:44.315Z,9.75
2023-05-23T03:03:13.955Z,10.00
2023-05-23T03:05:44.222Z,8.65
2023-05-23T03:08:13.884Z,9.58
2023-05-23T03:10:43.580Z,9.57
2023-05-23T03:13:13.449Z,10.20
2023-05-23T03:15:43.258Z,9.88
2023-05-23T03:18:12.989Z,10.32
2023-05-23T03:20:43.375Z,10.60
2023-05-23T03:23:12.995Z,10.10
2023-05-23T03:25:43.135Z,10.40
2023-05-23T03:28:15.698Z,10.85
2023-05-23T03:30:45.506Z,10.10
2023-05-23T03:33:15.279Z,10.28
2023-05-23T03:35:44.895Z,9.95
2023-05-23T03:38:15.061Z,10.13
2023-05-23T03:40:44.748Z,10.40
2023-05-23T03:43:15.279Z,9.85
2023-05-23T03:45:45.485Z,9.60
2023-05-23T03:48:17.602Z,9.40
2023-05-23T03:50:48.316Z,8.80
2023-05-23T03:53:18.108Z,10.08
2023-05-23T03:55:47.779Z,9.63
2023-05-23T03:58:17.409Z,9.03
2023-05-23T04:00:48.802Z,9.30
2023-05-23T04:03:18.969Z,9.20
2023-05-23T04:05:49.649Z,10.03
2023-05-23T04:08:21.327Z,10.15
2023-05-23T04:10:52.813Z,9.83
2023-05-23T04:13:25.062Z,9.40
2023-05-23T04:15:59.963Z,9.90
2023-05-23T04:18:30.936Z,9.40
2023-05-23T04:21:01.709Z,9.93
2023-05-23T04:23:32.112Z,10.53
2023-05-23T04:26:02.376Z,9.03
2023-05-23T04:28:35.198Z,9.93
2023-05-23T04:31:05.347Z,9.60
2023-05-23T04:33:37.561Z,9.17
2023-05-23T04:36:09.268Z,9.85
2023-05-23T04:38:41.662Z,9.28
2023-05-23T04:41:11.642Z,9.68
2023-05-23T04:43:53.237Z,9.63
2023-05-23T04:46:36.740Z,10.20
2023-05-23T04:49:11.184Z,10.40
2023-05-23T04:51:41.443Z,9.68
2023-05-23T04:54:12.783Z,10.43
2023-05-23T04:56:42.468Z,10.30
2023-05-23T04:59:13.646Z,9.88
2023-05-23T05:01:43.368Z,10.40
2023-05-23T05:04:15.672Z,10.58
2023-05-23T05:06:48.234Z,10.40
2023-05-23T05:09:19.495Z,12.13
2023-05-23T05:11:49.032Z,11.85
2023-05-23T05:14:19.054Z,11.00
2023-05-23T05:16:50.314Z,11.35
2023-05-23T05:19:22.610Z,11.20
2023-05-23T05:21:53.060Z,12.45
2023-05-23T05:24:22.678Z,11.05
2023-05-23T05:26:52.449Z,12.58
2023-05-23T05:29:22.277Z,12.90
2023-05-23T05:31:52.323Z,11.75
2023-05-23T05:34:23.473Z,13.25
2023-05-23T05:36:55.118Z,12.50
2023-05-23T05:39:26.964Z,13.05
2023-05-23T05:41:57.050Z,13.55
2023-05-23T05:44:27.445Z,13.72
2023-05-23T05:46:57.369Z,14.28
2023-05-23T05:49:28.052Z,12.90
2023-05-23T05:51:59.398Z,14.30
2023-05-23T05:54:29.983Z,13.90
2023-05-23T05:56:59.650Z,13.53
2023-05-23T05:59:31.118Z,12.30
2023-05-23T06:02:02.725Z,14.45
2023-05-23T06:04:32.990Z,12.80
2023-05-23T06:07:02.637Z,12.28
2023-05-23T06:09:32.165Z,12.65
2023-05-23T06:12:03.603Z,12.75
2023-05-23T06:14:33.343Z,13.50
2023-05-23T06:17:04.761Z,12.70
2023-05-23T06:19:35.415Z,12.10
2023-05-23T06:22:05.155Z,12.05
2023-05-23T06:24:35.428Z,12.18
2023-05-23T06:27:05.199Z,12.10
2023-05-23T06:29:36.038Z,12.90
2023-05-23T06:32:06.413Z,13.15
2023-05-23T06:34:36.026Z,12.03
2023-05-23T06:37:05.709Z,11.85
2023-05-23T06:39:35.513Z,12.35
2023-05-23T06:42:05.285Z,12.40
2023-05-23T06:44:36.552Z,12.20
2023-05-23T06:47:06.860Z,12.82
2023-05-23T06:49:36.489Z,11.40
2023-05-23T06:52:07.664Z,10.15
2023-05-23T06:54:38.077Z,10.90
2023-05-23T06:57:09.666Z,11.27
2023-05-23T06:59:39.920Z,10.60
2023-05-23T07:02:09.516Z,11.05
2023-05-23T07:04:39.710Z,10.13
2023-05-23T07:07:11.827Z,10.18
2023-05-23T07:09:41.421Z,10.32
2023-05-23T07:12:13.237Z,9.73
2023-05-23T07:14:44.336Z,9.55
2023-05-23T07:17:14.169Z,9.08
2023-05-23T07:19:44.086Z,9.10
2023-05-23T07:22:14.374Z,9.15
2023-05-23T07:24:44.564Z,8.88
2023-05-23T07:27:15.568Z,8.75
2023-05-23T07:29:46.101Z,7.90
2023-05-23T07:32:16.520Z,8.38
2023-05-23T07:34:47.570Z,8.13
2023-05-23T07:37:17.319Z,8.63
2023-05-23T07:39:47.128Z,8.55
2023-05-23T07:42:16.657Z,8.00
2023-05-23T07:44:46.715Z,8.30
2023-05-23T07:47:16.712Z,7.75
2023-05-23T07:49:47.628Z,8.00
2023-05-23T07:52:17.703Z,7.65
2023-05-23T07:54:47.401Z,7.37
2023-05-23T07:57:17.218Z,7.20
2023-05-23T07:59:46.922Z,7.67
2023-05-23T08:02:16.671Z,7.78
2023-05-23T08:04:48.357Z,7.95
2023-05-23T08:07:19.569Z,8.07
2023-05-23T08:09:51.105Z,7.10
2023-05-23T08:12:22.240Z,7.42
2023-05-23T08:14:53.548Z,7.60
2023-05-23T08:17:24.929Z,7.28
2023-05-23T08:19:54.838Z,7.15
2023-05-23T08:22:25.441Z,7.47
2023-05-23T08:24:55.027Z,7.87
2023-05-23T08:27:25.936Z,7.47
2023-05-23T08:29:57.173Z,7.67
2023-05-23T08:32:27.729Z,7.03
2023-05-23T08:34:57.363Z,7.55
2023-05-23T08:37:27.129Z,7.87
2023-05-23T08:39:57.440Z,8.43
2023-05-23T08:42:40.886Z,7.30
2023-05-23T08:45:11.612Z,7.78
2023-05-23T08:47:44.766Z,7.65
2023-05-23T08:50:21.166Z,7.28
2023-05-23T08:53:01.479Z,7.90
2023-05-23T08:55:32.337Z,7.85
2023-05-23T08:58:04.144Z,8.30
2023-05-23T09:00:35.926Z,9.03
2023-05-23T09:03:05.963Z,8.40
2023-05-23T09:05:40.038Z,8.45
2023-05-23T09:08:11.412Z,8.93
2023-05-23T09:10:41.683Z,8.87
2023-05-23T09:13:12.922Z,9.13
2023-05-23T09:16:02.385Z,8.20
2023-05-23T09:18:43.211Z,8.43
2023-05-23T09:21:15.799Z,7.40
2023-05-23T09:23:49.835Z,7.42
2023-05-23T09:26:19.555Z,7.72
2023-05-23T09:28:49.468Z,7.58
2023-05-23T09:31:19.196Z,6.47
2023-05-23T09:33:51.405Z,6.92
2023-05-23T09:36:21.762Z,7.53
2023-05-23T09:38:53.622Z,6.60
2023-05-23T09:41:25.219Z,6.10
2023-05-23T09:43:57.155Z,5.92
2023-05-23T09:46:31.309Z,6.40
2023-05-23T09:49:02.487Z,5.85
2023-05-23T09:51:32.741Z,5.97
2023-05-23T09:54:03.951Z,5.20
2023-05-23T09:56:36.868Z,5.95
2023-05-23T09:59:08.758Z,6.20
2023-05-23T10:01:38.818Z,5.53
2023-05-23T10:04:10.874Z,5.42
2023-05-23T10:06:43.198Z,5.23
2023-05-23T10:09:18.491Z,5.08
2023-05-23T10:12:19.779Z,5.47
2023-05-23T10:14:53.751Z,5.37
2023-05-23T10:17:29.650Z,4.70
2023-05-23T10:20:08.623Z,4.90
2023-05-23T10:22:39.065Z,4.70
2023-05-23T10:25:11.612Z,4.40
2023-05-23T10:30:11.435Z,4.92
2023-05-23T10:32:43.358Z,5.20
2023-05-23T10:35:37.728Z,5.05
2023-05-23T10:38:12.054Z,4.92
2023-05-23T10:40:54.710Z,4.60
2023-05-23T10:45:58.762Z,4.40
2023-05-23T10:48:37.381Z,4.95
2023-05-23T10:51:14.472Z,5.37
2023-05-23T10:53:46.172Z,4.80
2023-05-23T10:56:24.654Z,4.70
2023-05-23T10:58:58.716Z,3.92
2023-05-23T11:01:29.561Z,4.45
2023-05-23T11:04:01.642Z,3.98
2023-05-23T11:06:41.280Z,4.35
2023-05-23T11:09:22.738Z,4.63
2023-05-23T11:12:07.578Z,4.10
2023-05-23T11:14:48.962Z,4.17
2023-05-23T11:17:21.199Z,4.70
2023-05-23T11:19:59.972Z,4.35
2023-05-23T11:22:31.022Z,4.85
2023-05-23T11:25:02.074Z,4.97
2023-05-23T11:27:43.636Z,4.75
2023-05-23T11:30:15.767Z,4.50
2023-05-23T11:32:55.437Z,4.28
2023-05-23T11:35:25.386Z,4.45
2023-05-23T11:37:56.547Z,3.90
2023-05-23T11:40:38.046Z,4.90
2023-05-23T11:45:33.897Z,4.30
2023-05-23T11:48:14.917Z,4.75
2023-05-23T11:50:52.607Z,4.22
2023-05-23T11:53:26.047Z,3.85
2023-05-23T11:56:01.791Z,4.50
2023-05-23T11:58:40.862Z,3.92
2023-05-23T12:01:14.479Z,4.05
2023-05-23T12:03:50.004Z,4.08
2023-05-23T12:06:24.869Z,4.47
2023-05-23T12:08:54.675Z,4.35
2023-05-23T12:11:26.049Z,4.12
2023-05-23T12:13:56.004Z,4.67
2023-05-23T12:16:25.565Z,4.47
2023-05-23T12:18:56.782Z,4.00
2023-05-23T12:21:42.864Z,3.50
2023-05-23T12:24:23.177Z,3.90
2023-05-23T12:26:55.347Z,4.30
2023-05-23T12:29:37.294Z,4.17
2023-05-23T12:32:08.362Z,4.28
2023-05-23T12:34:43.476Z,3.47
2023-05-23T12:39:46.638Z,3.55
2023-05-23T12:42:16.160Z,4.08
2023-05-23T12:44:47.454Z,3.98
2023-05-23T12:47:19.727Z,4.43
2023-05-23T12:52:20.557Z,3.92
2023-05-23T12:54:51.809Z,4.42
2023-05-23T12:57:23.112Z,3.90
2023-05-23T12:59:52.990Z,3.77
2023-05-23T13:02:23.808Z,3.67
2023-05-23T13:04:53.381Z,3.27
2023-05-23T13:07:24.004Z,3.35
2023-05-23T13:09:54.032Z,3.60
2023-05-23T13:12:23.890Z,3.75
2023-05-23T13:14:53.438Z,3.62
2023-05-23T13:17:23.368Z,3.67
2023-05-23T13:19:54.285Z,3.77
2023-05-23T13:22:23.954Z,4.03
2023-05-23T13:24:53.558Z,3.40
2023-05-23T13:27:23.079Z,3.77
2023-05-23T13:29:54.612Z,3.47
2023-05-23T13:32:23.793Z,3.22
2023-05-23T13:34:53.440Z,3.62
2023-05-23T13:37:23.469Z,3.80
2023-05-23T13:39:52.977Z,2.80
2023-05-23T13:42:22.578Z,3.22
2023-05-23T13:44:52.353Z,3.52
2023-05-23T13:47:21.925Z,3.30
2023-05-23T13:49:51.523Z,3.83
2023-05-23T13:52:21.442Z,3.22
2023-05-23T13:54:51.028Z,3.80
2023-05-23T13:57:21.025Z,3.30
2023-05-23T13:59:51.136Z,3.58
2023-05-23T14:02:22.121Z,3.55
2023-05-23T14:04:52.030Z,3.58
2023-05-23T14:07:22.361Z,3.35
2023-05-23T14:09:52.019Z,3.62
2023-05-23T14:12:21.544Z,3.33
2023-05-23T14:14:51.656Z,3.80
2023-05-23T14:17:21.350Z,3.60
2023-05-23T14:19:51.805Z,3.92
2023-05-23T14:22:21.435Z,3.47
2023-05-23T14:24:51.026Z,3.52
2023-05-23T14:27:20.541Z,3.67
2023-05-23T14:29:50.272Z,3.67
2023-05-23T14:32:20.075Z,3.95
2023-05-23T14:34:49.738Z,3.60
2023-05-23T14:37:19.281Z,4.05
2023-05-23T14:39:48.865Z,3.90
2023-05-23T14:42:18.397Z,3.60
2023-05-23T14:44:48.036Z,3.30
2023-05-23T14:47:17.633Z,3.55
2023-05-23T14:49:47.159Z,3.67
2023-05-23T14:52:18.073Z,3.58
2023-05-23T14:54:47.655Z,3.52
2023-05-23T14:57:17.258Z,3.20
2023-05-23T14:59:46.810Z,3.60
2023-05-23T15:02:17.614Z,3.45
2023-05-23T15:04:47.412Z,3.58
2023-05-23T15:07:18.881Z,4.00
2023-05-23T15:09:48.441Z,3.90
2023-05-23T15:12:17.985Z,3.90
2023-05-23T15:14:47.559Z,3.60
2023-05-23T15:17:24.309Z,3.77
2023-05-23T15:19:56.909Z,3.58
2023-05-23T15:25:00.687Z,3.33
2023-05-23T15:27:30.310Z,3.85
2023-05-23T15:30:01.005Z,3.08
2023-05-23T15:32:31.926Z,3.02
2023-05-23T15:35:01.516Z,3.80
2023-05-23T15:37:31.067Z,3.67
2023-05-23T15:40:00.656Z,3.67
2023-05-23T15:42:30.425Z,3.45
2023-05-23T15:45:01.255Z,3.60
2023-05-23T15:47:31.071Z,3.10
2023-05-23T15:50:00.712Z,3.58
2023-05-23T15:52:31.142Z,3.87
2023-05-23T15:55:02.001Z,4.10
2023-05-23T15:57:31.560Z,4.33
2023-05-23T16:00:01.708Z,3.52
2023-05-23T16:02:32.982Z,3.63
2023-05-23T16:05:02.641Z,3.40
2023-05-23T16:07:32.215Z,4.25
2023-05-23T16:10:01.949Z,4.00
2023-05-23T16:12:32.100Z,3.90
2023-05-23T16:15:01.638Z,4.08
2023-05-23T16:17:31.251Z,4.35
2023-05-23T16:20:03.660Z,6.28
2023-05-23T16:22:33.187Z,4.33
2023-05-23T16:25:02.704Z,4.30
2023-05-23T16:27:32.324Z,4.25
2023-05-23T16:30:01.884Z,3.90
2023-05-23T16:32:31.540Z,4.12
2023-05-23T16:35:01.857Z,3.92
2023-05-23T16:37:31.394Z,4.10
2023-05-23T16:40:01.055Z,4.37
2023-05-23T16:42:31.361Z,3.98
2023-05-23T16:45:01.860Z,3.67
2023-05-23T16:47:32.694Z,4.25
2023-05-23T16:50:02.338Z,4.47
2023-05-23T16:52:33.519Z,4.53
2023-05-23T16:55:04.565Z,4.67
2023-05-23T16:57:34.182Z,4.50
2023-05-23T17:00:06.196Z,4.85
2023-05-23T17:02:35.881Z,4.87
2023-05-23T17:05:06.069Z,4.20
2023-05-23T17:07:35.615Z,4.20
2023-05-23T17:10:05.364Z,3.60
2023-05-23T17:12:34.919Z,4.17
2023-05-23T17:15:06.976Z,3.90
2023-05-23T17:17:37.151Z,4.17
2023-05-23T17:20:08.590Z,4.65
2023-05-23T17:22:38.381Z,4.03
2023-05-23T17:25:08.174Z,3.83
2023-05-23T17:27:37.806Z,4.10
2023-05-23T17:30:08.210Z,3.83
2023-05-23T17:32:38.262Z,4.55
2023-05-23T17:35:08.686Z,3.92
2023-05-23T17:37:38.512Z,4.40
2023-05-23T17:40:08.991Z,3.92
2023-05-23T17:42:41.450Z,3.92
2023-05-23T17:45:11.710Z,3.70
2023-05-23T17:47:41.939Z,4.08
2023-05-23T17:50:12.509Z,4.20
2023-05-23T17:52:42.855Z,3.87
2023-05-23T17:55:12.563Z,3.80
2023-05-23T17:57:42.219Z,4.37
2023-05-23T18:00:13.632Z,4.10
2023-05-23T18:02:43.043Z,3.98
2023-05-23T18:05:13.233Z,4.05
2023-05-23T18:07:42.799Z,4.30
2023-05-23T18:10:13.459Z,4.23
2023-05-23T18:12:43.260Z,4.45
2023-05-23T18:15:13.496Z,4.43
2023-05-23T18:17:43.162Z,4.15
2023-05-23T18:20:13.482Z,4.40
2023-05-23T18:22:43.341Z,3.67
2023-05-23T18:25:14.866Z,3.70
2023-05-23T18:27:44.745Z,3.08
2023-05-23T18:30:14.411Z,3.20
2023-05-23T18:32:45.766Z,2.98
2023-05-23T18:35:15.917Z,3.05
2023-05-23T18:37:45.531Z,3.55
2023-05-23T18:40:16.027Z,3.25
2023-05-23T18:42:45.617Z,3.40
2023-05-23T18:45:15.153Z,3.45
2023-05-23T18:47:44.892Z,3.65
2023-05-23T18:50:15.347Z,3.02
2023-05-23T18:52:44.887Z,3.00
2023-05-23T18:55:16.627Z,3.47
2023-05-23T18:57:46.329Z,3.45
2023-05-23T19:00:16.286Z,3.10
2023-05-23T19:02:46.603Z,3.52
2023-05-23T19:05:16.240Z,2.70
2023-05-23T19:07:45.938Z,3.15
2023-05-23T19:10:15.798Z,3.70
2023-05-23T19:12:45.985Z,3.25
2023-05-23T19:15:15.495Z,2.50
2023-05-23T19:17:45.268Z,2.42
2023-05-23T19:20:17.141Z,2.50
2023-05-23T19:22:52.388Z,2.77
2023-05-23T19:25:19.616Z,3.95
2023-05-23T19:27:49.450Z,4.08
2023-05-23T19:30:19.220Z,2.67
2023-05-23T19:32:49.139Z,2.70
2023-05-23T19:35:18.846Z,2.50
2023-05-23T19:37:49.449Z,2.52
2023-05-23T19:40:20.901Z,2.60
2023-05-23T19:42:51.253Z,2.40
2023-05-23T19:45:21.420Z,2.67
2023-05-23T19:47:51.206Z,2.60
2023-05-23T19:50:22.328Z,2.52
2023-05-23T19:52:52.460Z,2.25
2023-05-23T19:55:22.048Z,2.40
2023-05-23T19:57:51.653Z,2.50
2023-05-23T20:00:21.630Z,2.37
2023-05-23T20:02:51.195Z,2.62
2023-05-23T20:05:22.017Z,2.40
2023-05-23T20:07:51.534Z,2.42
2023-05-23T20:10:21.302Z,2.58
2023-05-23T20:12:51.241Z,2.45
2023-05-23T20:15:31.283Z,2.70
2023-05-23T20:17:52.991Z,2.47
2023-05-23T20:20:22.587Z,2.85
2023-05-23T20:22:52.112Z,2.85
2023-05-23T20:25:26.184Z,2.72
2023-05-23T20:27:59.015Z,2.52
2023-05-23T20:30:29.720Z,2.58
2023-05-23T20:32:59.350Z,2.95
2023-05-23T20:35:28.842Z,2.60
2023-05-23T20:37:58.934Z,2.60
2023-05-23T20:40:29.729Z,2.87
2023-05-23T20:43:01.180Z,2.85
2023-05-23T20:45:32.777Z,2.80
2023-05-23T20:48:02.782Z,2.80
2023-05-23T20:50:34.028Z,2.80
2023-05-23T20:53:03.924Z,3.00
2023-05-23T20:55:35.355Z,3.27
2023-05-23T20:58:05.474Z,2.83
2023-05-23T21:00:34.985Z,2.80
2023-05-23T21:03:04.774Z,2.83
2023-05-23T21:05:34.397Z,3.00
2023-05-23T21:08:04.431Z,2.80
2023-05-23T21:10:34.356Z,2.85
2023-05-23T21:13:03.962Z,3.08
2023-05-23T21:15:34.166Z,2.70
2023-05-23T21:18:03.779Z,3.62
2023-05-23T21:20:33.410Z,3.00
2023-05-23T21:23:02.970Z,3.00
2023-05-23T21:25:32.623Z,3.10
2023-05-23T21:28:02.545Z,3.30
2023-05-23T21:30:32.264Z,3.08
2023-05-23T21:33:01.885Z,3.08
2023-05-23T21:35:31.481Z,3.10
2023-05-23T21:38:01.067Z,3.20
2023-05-23T21:40:30.579Z,3.25
2023-05-23T21:43:00.173Z,2.83
2023-05-23T21:45:29.725Z,3.02
2023-05-23T21:47:59.344Z,3.40
2023-05-23T21:50:28.929Z,4.05
2023-05-23T21:52:58.497Z,4.08
2023-05-23T21:55:28.085Z,3.22
2023-05-23T21:57:57.669Z,4.05
2023-05-23T22:00:27.471Z,4.10
2023-05-23T22:02:58.112Z,3.60
2023-05-23T22:05:28.051Z,3.65
2023-05-23T22:07:57.566Z,3.60
2023-05-23T22:10:27.087Z,3.50
2023-05-23T22:12:57.123Z,3.60
2023-05-23T22:15:26.669Z,3.35
2023-05-23T22:17:56.324Z,3.10
2023-05-23T22:20:26.160Z,3.40
2023-05-23T22:22:55.679Z,3.42
2023-05-23T22:25:25.200Z,3.90
2023-05-23T22:27:54.744Z,3.42
2023-05-23T22:30:24.328Z,4.03
2023-05-23T22:32:53.858Z,4.05
2023-05-23T22:35:23.750Z,3.70
2023-05-23T22:37:53.268Z,3.80
2023-05-23T22:40:22.794Z,4.03
2023-05-23T22:42:52.499Z,4.28
2023-05-23T22:45:22.095Z,4.17
2023-05-23T22:47:53.694Z,4.08
2023-05-23T22:50:23.214Z,4.92
2023-05-23T22:52:52.738Z,4.53
2023-05-23T22:55:22.368Z,3.83
2023-05-23T22:57:51.886Z,4.10
2023-05-23T23:00:21.652Z,3.98
2023-05-23T23:02:51.425Z,3.83
2023-05-23T23:05:23.375Z,3.37
2023-05-23T23:07:53.253Z,4.22
2023-05-23T23:10:22.768Z,4.58
2023-05-23T23:12:52.370Z,3.95
2023-05-23T23:15:24.641Z,3.52
2023-05-23T23:17:54.359Z,3.72
2023-05-23T23:20:24.091Z,3.67
2023-05-23T23:22:53.635Z,3.53
2023-05-23T23:25:23.303Z,3.40
2023-05-23T23:27:52.858Z,3.27
2023-05-23T23:30:22.674Z,3.50
2023-05-23T23:32:52.391Z,3.52
2023-05-23T23:35:21.985Z,3.35
2023-05-23T23:37:51.556Z,3.77
2023-05-23T23:40:21.282Z,3.92
2023-05-23T23:42:50.795Z,3.85
2023-05-23T23:45:20.516Z,3.52
2023-05-23T23:47:50.350Z,3.60
2023-05-23T23:50:19.997Z,3.50
2023-05-23T23:52:50.217Z,3.72
2023-05-23T23:57:46.604Z,3.33
